Time;durP1;ratioP1;P1;durP2;ratioP2;P2;SDS_P1;SDS_P2;PMS_P1;PMS_P2;Temp;Humidity;BMP_temperature;BMP_pressure;BME280_temperature;BME280_humidity;BME280_pressure;Samples;Min_cycle;Max_cycle;Signal;HPM_P1;HPM_P2
2023/01/01 00:00:21;;;;;;;40.08;31.75;;;;;;;20.10;51.74;102696.03;5034543;28;20048;-50
2023/01/01 00:02:48;;;;;;;32.70;28.85;;;;;;;20.10;51.63;102677.22;5032442;28;20399;-50
2023/01/01 00:05:16;;;;;;;35.88;31.25;;;;;;;20.10;51.70;102687.13;5030091;28;20060;-54
2023/01/01 00:07:43;;;;;;;33.88;29.42;;;;;;;20.11;51.74;102676.25;5015038;28;20053;-54
2023/01/01 00:10:28;;;;;;;34.17;28.98;;;;;;;20.11;52.06;102672.72;5015366;28;20042;-56
2023/01/01 00:12:56;;;;;;;35.53;29.65;;;;;;;20.10;51.69;102673.69;5014909;28;20056;-55
2023/01/01 00:15:26;;;;;;;36.13;28.83;;;;;;;20.11;51.97;102668.19;5014959;28;20046;-56
2023/01/01 00:17:53;;;;;;;33.03;27.35;;;;;;;20.10;51.58;102663.78;5014855;28;20050;-55
2023/01/01 00:20:21;;;;;;;36.45;28.25;;;;;;;20.11;52.19;102657.44;5014071;28;20401;-56
2023/01/01 00:22:48;;;;;;;34.10;27.92;;;;;;;20.11;52.19;102648.50;5014698;28;20046;-56
2023/01/01 00:25:23;;;;;;;38.00;31.13;;;;;;;20.10;51.64;102653.03;5014809;28;20050;-56
2023/01/01 00:27:50;;;;;;;34.55;30.80;;;;;;;20.10;51.54;102655.72;5014980;28;20045;-56
2023/01/01 00:30:18;;;;;;;36.88;29.73;;;;;;;20.10;51.49;102658.41;5015046;28;20048;-56
2023/01/01 00:32:45;;;;;;;35.95;29.65;;;;;;;20.09;51.58;102658.47;5014903;28;20049;-56
2023/01/01 00:35:23;;;;;;;35.60;30.35;;;;;;;20.08;51.83;102654.94;5015340;28;20054;-56
2023/01/01 00:37:52;;;;;;;32.10;27.95;;;;;;;20.08;51.57;102660.31;5014895;28;20396;-55
2023/01/01 00:40:19;;;;;;;33.63;30.02;;;;;;;20.08;51.72;102652.25;5014665;28;20057;-56
2023/01/01 00:42:47;;;;;;;33.05;29.42;;;;;;;20.08;51.64;102652.25;5014892;28;20046;-55
2023/01/01 00:45:14;;;;;;;32.83;27.77;;;;;;;20.07;51.59;102653.22;5014798;28;20046;-55
2023/01/01 00:47:49;;;;;;;31.45;28.05;;;;;;;20.06;51.54;102654.16;5014861;28;20061;-55
2023/01/01 00:50:18;;;;;;;34.08;28.70;;;;;;;20.07;51.62;102661.28;5015119;28;20065;-56
2023/01/01 00:52:45;;;;;;;32.78;29.20;;;;;;;20.06;51.44;102656.84;5014731;28;20050;-55
2023/01/01 00:55:13;;;;;;;34.17;30.40;;;;;;;20.06;51.37;102659.53;5014552;28;20046;-55
2023/01/01 00:57:40;;;;;;;31.17;27.83;;;;;;;20.05;51.51;102660.47;5015616;28;20046;-55
2023/01/01 01:00:08;;;;;;;29.90;26.65;;;;;;;20.05;51.56;102652.41;5014504;28;20387;-55
2023/01/01 01:02:36;;;;;;;35.25;30.00;;;;;;;20.05;51.22;102657.78;5014465;28;20050;-55
2023/01/01 01:05:04;;;;;;;32.03;27.85;;;;;;;20.05;51.33;102655.09;5014352;28;20050;-55
2023/01/01 01:07:36;;;;;;;31.52;28.08;;;;;;;20.05;51.58;102656.94;5014408;28;20045;-55
2023/01/01 01:10:05;;;;;;;33.30;29.70;;;;;;;20.05;51.58;102660.47;5014461;28;20054;-55
2023/01/01 01:12:33;;;;;;;34.13;30.33;;;;;;;20.04;51.41;102658.75;5013634;28;20049;-55
2023/01/01 01:15:01;;;;;;;32.33;27.95;;;;;;;20.05;51.41;102665.00;5014351;28;20046;-55
2023/01/01 01:17:28;;;;;;;32.88;29.13;;;;;;;20.05;51.52;102651.56;5014332;28;20057;-55
2023/01/01 01:19:56;;;;;;;33.95;29.33;;;;;;;20.04;51.39;102661.44;5014084;28;20049;-55
2023/01/01 01:22:23;;;;;;;35.63;30.13;;;;;;;20.03;51.56;102657.03;5014283;28;20060;-56
2023/01/01 01:24:56;;;;;;;33.22;29.63;;;;;;;20.03;51.42;102657.03;5014157;28;20050;-54
2023/01/01 01:27:24;;;;;;;34.13;30.10;;;;;;;20.03;51.54;102648.97;5014103;28;20161;-56
2023/01/01 01:29:52;;;;;;;31.58;28.25;;;;;;;20.03;51.55;102650.78;5014100;28;20042;-56
2023/01/01 01:32:20;;;;;;;34.22;30.50;;;;;;;20.03;51.58;102651.66;5013948;28;20061;-56
2023/01/01 01:34:47;;;;;;;35.47;29.00;;;;;;;20.03;51.62;102656.16;5014002;28;20046;-54
2023/01/01 01:37:15;;;;;;;36.15;29.02;;;;;;;20.02;51.43;102655.31;5013994;28;20049;-55
2023/01/01 01:39:42;;;;;;;34.95;29.25;;;;;;;20.01;51.45;102650.88;5013724;28;20069;-55
2023/01/01 01:42:17;;;;;;;32.97;28.88;;;;;;;20.02;51.48;102666.06;5013879;28;20045;-56
2023/01/01 01:44:44;;;;;;;32.38;28.88;;;;;;;20.02;51.22;102671.44;5013912;28;20050;-56
2023/01/01 01:47:37;;;;;;;31.85;28.50;;;;;;;20.02;51.52;102670.59;5013993;28;20045;-55
2023/01/01 01:50:07;;;;;;;34.57;29.30;;;;;;;20.01;51.69;102661.63;5013757;28;20073;-55
2023/01/01 01:52:39;;;;;;;36.38;30.33;;;;;;;20.01;51.74;102664.31;5013725;28;20054;-56
2023/01/01 01:55:08;;;;;;;32.83;28.90;;;;;;;20.02;51.45;102670.59;5013609;28;20391;-56
2023/01/01 01:57:39;;;;;;;33.88;27.58;;;;;;;20.01;51.50;102667.00;5013597;28;20087;-56
2023/01/01 02:00:08;;;;;;;32.53;29.05;;;;;;;20.00;51.51;102659.91;5012660;28;20399;-56
2023/01/01 02:03:08;;;;;;;31.15;27.90;;;;;;;19.99;51.81;102661.72;5013558;28;20049;-55
2023/01/01 02:05:37;;;;;;;32.95;29.48;;;;;;;19.99;51.60;102653.66;5013516;28;20050;-56
2023/01/01 02:08:07;;;;;;;32.60;29.08;;;;;;;19.99;51.60;102650.97;5013394;28;20388;-55
2023/01/01 02:10:34;;;;;;;36.45;29.83;;;;;;;19.99;51.31;102648.28;5013619;28;20381;-55
2023/01/01 02:13:02;;;;;;;32.63;28.98;;;;;;;19.99;51.75;102645.59;5013642;28;20495;-55
2023/01/01 02:15:37;;;;;;;33.33;29.75;;;;;;;19.99;51.58;102644.72;5013546;28;20050;-55
2023/01/01 02:18:13;;;;;;;32.58;29.17;;;;;;;19.98;51.75;102646.56;5013606;28;20484;-56
2023/01/01 02:21:06;;;;;;;35.72;30.40;;;;;;;19.98;51.64;102649.25;5013448;28;20472;-55
2023/01/01 02:23:58;;;;;;;31.65;28.35;;;;;;;19.98;51.75;102643.00;5015667;28;20423;-55
2023/01/01 02:26:37;;;;;;;35.38;29.77;;;;;;;19.98;51.39;102640.31;5017245;28;20054;-54
2023/01/01 02:29:16;;;;;;;33.67;29.45;;;;;;;19.97;51.71;102643.94;5017384;28;20052;-55
2023/01/01 02:31:52;;;;;;;32.63;29.10;;;;;;;19.96;51.80;102643.09;5017308;28;20060;-55
2023/01/01 02:34:24;;;;;;;32.85;29.30;;;;;;;19.97;51.61;102641.25;5017339;28;20380;-55
2023/01/01 02:36:56;;;;;;;32.72;29.27;;;;;;;19.96;51.76;102634.16;5017182;28;20045;-55
2023/01/01 02:39:28;;;;;;;33.95;28.90;;;;;;;19.96;51.76;102629.63;5016882;28;20053;-55
2023/01/01 02:41:57;;;;;;;30.85;27.45;;;;;;;19.96;51.85;102634.16;5017129;28;20057;-55
2023/01/01 02:44:29;;;;;;;31.08;27.65;;;;;;;19.96;51.65;102636.84;5017134;28;20049;-55
2023/01/01 02:47:05;;;;;;;32.53;28.02;;;;;;;19.96;51.63;102628.78;5017132;28;20452;-55
2023/01/01 02:49:36;;;;;;;33.28;29.00;;;;;;;19.96;51.67;102623.41;5017028;28;20053;-55
2023/01/01 02:52:19;;;;;;;31.50;27.65;;;;;;;19.96;51.59;102626.97;5016993;28;20053;-55
2023/01/01 02:55:27;;;;;;;31.80;27.65;;;;;;;19.96;51.64;102628.78;5016949;28;20050;-54
2023/01/01 03:01:04;;;;;;;30.83;27.73;;;;;;;19.95;51.63;102629.75;5016600;28;20049;-54
2023/01/01 03:03:44;;;;;;;31.85;26.98;;;;;;;19.95;51.58;102627.91;5016797;28;20050;-56
2023/01/01 03:06:22;;;;;;;30.23;27.00;;;;;;;19.95;51.63;102617.16;5016785;28;20052;-55
2023/01/01 03:09:19;;;;;;;30.88;27.50;;;;;;;19.95;51.68;102608.25;5016701;28;20057;-55
2023/01/01 03:12:04;;;;;;;29.05;25.92;;;;;;;19.94;51.63;102615.44;5015267;28;20050;-55
2023/01/01 03:15:00;;;;;;;33.47;27.25;;;;;;;19.94;51.48;102615.44;5016791;28;20058;-55
2023/01/01 03:17:56;;;;;;;29.05;25.80;;;;;;;19.94;51.44;102619.97;5016329;28;20042;-55
2023/01/01 03:20:30;;;;;;;28.92;25.50;;;;;;;19.94;51.79;102628.88;5019723;28;20057;-55
2023/01/01 03:23:05;;;;;;;31.52;26.38;;;;;;;19.94;51.59;102619.97;5016451;28;20054;-55
2023/01/01 03:25:38;;;;;;;29.50;25.60;;;;;;;19.94;51.82;102623.50;5016399;28;20050;-55
2023/01/01 03:28:09;;;;;;;;;;;;;;;19.94;51.58;102630.72;5016717;28;20042;-54
2023/01/01 03:30:39;;;;;;;33.42;26.42;;;;;;;19.92;51.54;102620.03;5016319;28;20256;-55
2023/01/01 03:33:14;;;;;;;29.08;25.95;;;;;;;19.93;51.43;102623.59;5016243;28;20046;-56
2023/01/01 03:35:55;;;;;;;29.52;26.33;;;;;;;19.94;51.76;102614.59;5015954;28;20050;-55
2023/01/01 03:38:49;;;;;;;30.70;26.75;;;;;;;19.93;51.74;102607.44;5016207;28;20050;-55
2023/01/01 03:41:26;;;;;;;29.70;25.35;;;;;;;19.92;51.73;102606.59;5017332;28;20053;-53
2023/01/01 03:43:57;;;;;;;29.33;25.65;;;;;;;19.92;51.57;102608.41;5014929;28;20404;-54
2023/01/01 03:46:29;;;;;;;30.13;25.40;;;;;;;19.92;51.66;102595.84;5016032;28;20046;-55
2023/01/01 03:48:57;;;;;;;27.90;24.85;;;;;;;19.91;51.30;102596.81;5016057;28;20461;-55
2023/01/01 03:51:51;;;;;;;30.42;26.52;;;;;;;19.91;51.55;102607.56;5015901;28;20046;-55
2023/01/01 03:54:21;;;;;;;28.27;25.08;;;;;;;19.91;51.43;102607.56;5016372;28;20054;-55
2023/01/01 03:57:02;;;;;;;27.05;24.25;;;;;;;19.91;51.71;102604.00;5015707;28;20049;-55
2023/01/01 03:59:53;;;;;;;27.52;24.70;;;;;;;19.92;51.85;102605.72;5015691;28;20046;-56
2023/01/01 04:02:28;;;;;;;30.38;24.35;;;;;;;19.90;51.58;102594.22;5015629;28;20408;-56
2023/01/01 04:04:58;;;;;;;28.42;24.13;;;;;;;19.90;51.63;102595.09;5015705;28;20057;-56
2023/01/01 04:07:29;;;;;;;26.02;22.98;;;;;;;19.89;51.77;102577.22;5015675;28;20046;-55
2023/01/01 04:10:00;;;;;;;28.83;25.58;;;;;;;19.90;51.52;102586.16;5015618;28;20046;-56
2023/01/01 04:12:29;;;;;;;25.35;22.75;;;;;;;19.90;51.52;102581.66;5015393;28;20045;-55
2023/01/01 04:14:56;;;;;;;29.15;24.65;;;;;;;19.90;51.63;102576.28;5015319;28;20427;-55
2023/01/01 04:17:24;;;;;;;26.80;23.70;;;;;;;19.90;51.79;102580.78;5015251;28;20050;-55
2023/01/01 04:19:51;;;;;;;27.60;24.10;;;;;;;19.90;51.70;102578.09;5015109;28;20045;-54
2023/01/01 04:22:22;;;;;;;26.60;22.42;;;;;;;19.90;51.56;102586.16;5015213;28;20484;-56
2023/01/01 04:24:49;;;;;;;26.60;23.05;;;;;;;19.89;51.74;102576.34;5015253;28;20396;-55
2023/01/01 04:27:17;;;;;;;26.65;21.83;;;;;;;19.89;51.51;102587.09;5015129;28;20475;-55
2023/01/01 04:29:44;;;;;;;25.65;22.85;;;;;;;19.89;51.53;102588.00;5015202;28;20042;-55
2023/01/01 04:32:11;;;;;;;27.73;22.33;;;;;;;19.90;51.41;102591.53;5015141;28;20038;-55
2023/01/01 04:34:39;;;;;;;25.15;22.45;;;;;;;19.89;51.27;102590.69;5015124;28;20518;-56
2023/01/01 04:37:06;;;;;;;23.95;21.27;;;;;;;19.89;51.18;102597.84;5015053;28;20053;-54
2023/01/01 04:39:40;;;;;;;26.88;23.13;;;;;;;19.89;51.40;102604.13;5014894;28;20395;-55
2023/01/01 04:42:07;;;;;;;26.60;22.75;;;;;;;19.90;51.24;102602.28;5014871;28;20387;-55
2023/01/01 04:44:34;;;;;;;24.50;21.58;;;;;;;19.88;50.93;102599.66;5014919;28;20053;-55
2023/01/01 04:47:02;;;;;;;24.85;20.48;;;;;;;19.88;51.20;102601.50;5014934;28;20050;-55
2023/01/01 04:49:29;;;;;;;25.42;21.35;;;;;;;19.88;51.12;102593.44;5014777;28;20045;-55
2023/01/01 04:51:57;;;;;;;24.95;22.08;;;;;;;19.87;50.95;102597.94;5014686;28;20042;-55
2023/01/01 04:54:24;;;;;;;26.00;21.40;;;;;;;19.88;50.99;102598.81;5014681;28;20057;-55
2023/01/01 04:56:51;;;;;;;23.27;20.98;;;;;;;19.87;51.21;102597.94;5014582;28;20147;-55
2023/01/01 04:59:18;;;;;;;23.02;20.58;;;;;;;19.87;51.08;102603.31;5014579;28;20050;-55
2023/01/01 05:01:46;;;;;;;26.70;22.05;;;;;;;19.87;51.18;102599.78;5014572;28;20407;-55
2023/01/01 05:04:15;;;;;;;25.77;20.75;;;;;;;19.86;50.99;102596.22;5014584;28;20061;-55
2023/01/01 05:06:43;;;;;;;22.88;20.30;;;;;;;19.86;50.91;102590.84;5014644;28;20053;-55
2023/01/01 05:09:11;;;;;;;23.67;19.30;;;;;;;19.87;51.02;102591.72;5014533;28;20056;-55
2023/01/01 05:11:38;;;;;;;23.50;19.73;;;;;;;19.86;50.92;102600.75;5014959;28;20054;-55
2023/01/01 05:14:06;;;;;;;23.00;20.63;;;;;;;19.86;50.91;102604.28;5014358;28;20053;-55
2023/01/01 05:16:36;;;;;;;23.10;20.40;;;;;;;19.86;50.97;102592.69;5014359;28;20050;-54
2023/01/01 05:19:05;;;;;;;21.83;19.55;;;;;;;19.85;50.81;102594.50;5014303;28;20049;-55
2023/01/01 05:21:35;;;;;;;23.92;20.05;;;;;;;19.85;51.10;102599.88;5014184;28;20042;-55
2023/01/01 05:24:05;;;;;;;21.90;19.40;;;;;;;19.85;50.90;102604.38;5014123;28;20395;-55
2023/01/01 05:26:38;;;;;;;22.73;19.05;;;;;;;19.85;50.86;102604.38;5014690;28;20065;-55
2023/01/01 05:29:05;;;;;;;22.52;19.38;;;;;;;19.85;50.92;102607.06;5013062;28;20049;-54
2023/01/01 05:31:43;;;;;;;21.70;19.40;;;;;;;19.85;50.93;102609.75;5014154;28;20475;-55
2023/01/01 05:34:11;;;;;;;22.17;18.83;;;;;;;19.84;50.79;102610.72;5029192;28;20053;-55
2023/01/01 05:36:38;;;;;;;23.75;19.60;;;;;;;19.83;50.82;102609.84;5013993;28;20056;-56
2023/01/01 05:39:11;;;;;;;26.30;21.40;;;;;;;19.83;50.71;102607.16;5013929;28;20042;-54
2023/01/01 05:41:39;;;;;;;22.27;19.90;;;;;;;19.83;50.72;102607.16;5013908;28;20038;-56
2023/01/01 05:44:07;;;;;;;21.00;18.20;;;;;;;19.83;50.78;102601.78;5013879;28;20282;-55
2023/01/01 05:46:36;;;;;;;21.83;19.60;;;;;;;19.81;50.90;102614.47;5013957;28;20061;-55
2023/01/01 05:49:03;;;;;;;21.40;17.95;;;;;;;19.81;50.65;102617.16;5013943;28;20054;-55
2023/01/01 05:51:31;;;;;;;20.65;17.98;;;;;;;19.82;50.88;102621.56;5013832;28;20042;-55
2023/01/01 05:54:00;;;;;;;21.20;17.88;;;;;;;19.82;50.69;102618.00;5013726;28;20054;-56
2023/01/01 05:56:28;;;;;;;23.17;18.27;;;;;;;19.82;50.90;102623.38;5013586;28;20077;-56
2023/01/01 05:58:55;;;;;;;21.02;18.50;;;;;;;19.82;50.81;102624.25;5013193;28;20050;-55
2023/01/01 06:01:29;;;;;;;20.35;18.10;;;;;;;19.82;50.73;102628.75;5013638;28;20042;-55
2023/01/01 06:03:58;;;;;;;20.73;18.23;;;;;;;19.82;50.67;102631.44;5013676;28;20392;-56
2023/01/01 06:06:29;;;;;;;22.13;17.25;;;;;;;19.82;50.85;102636.81;5028879;28;20476;-56
2023/01/01 06:08:59;;;;;;;20.05;17.65;;;;;;;19.82;50.76;102631.44;5013587;28;20046;-55
2023/01/01 06:11:26;;;;;;;18.85;16.40;;;;;;;19.81;50.95;102625.22;5013694;28;20049;-56
2023/01/01 06:13:57;;;;;;;19.48;16.80;;;;;;;19.82;50.88;102631.44;5013460;28;20058;-56
2023/01/01 06:16:26;;;;;;;20.15;16.75;;;;;;;19.81;50.94;102630.59;5013686;28;20042;-55
2023/01/01 06:18:53;;;;;;;21.67;17.30;;;;;;;19.82;50.86;102620.69;5013701;28;20050;-56
2023/01/01 06:21:23;;;;;;;21.30;16.88;;;;;;;19.82;50.84;102623.38;5013450;28;20034;-57
2023/01/01 06:23:50;;;;;;;19.00;16.05;;;;;;;19.81;50.72;102627.00;5013537;28;20049;-56
2023/01/01 06:26:20;;;;;;;18.70;16.63;;;;;;;19.82;50.91;102626.06;5013495;28;20364;-56
2023/01/01 06:28:49;;;;;;;17.50;15.52;;;;;;;19.80;50.81;102628.84;5013688;28;20428;-57
2023/01/01 06:31:18;;;;;;;19.90;16.83;;;;;;;19.81;50.80;102622.53;5013216;28;20499;-56
2023/01/01 06:33:46;;;;;;;18.13;15.90;;;;;;;19.79;50.74;102619.03;5013206;28;20479;-56
2023/01/01 06:36:15;;;;;;;18.77;15.50;;;;;;;19.79;50.83;102616.34;5013394;28;20050;-56
2023/01/01 06:38:46;;;;;;;17.25;15.18;;;;;;;19.79;50.75;102623.56;5013284;28;20053;-57
2023/01/01 06:41:16;;;;;;;18.52;16.08;;;;;;;19.78;50.93;102622.69;5013307;28;20049;-56
2023/01/01 06:43:44;;;;;;;20.23;16.20;;;;;;;19.80;50.96;102625.28;5013273;28;20053;-56
2023/01/01 06:46:15;;;;;;;20.90;16.38;;;;;;;19.78;50.95;102628.06;5013444;28;20046;-56
2023/01/01 06:48:43;;;;;;;17.83;15.43;;;;;;;19.78;50.86;102635.28;5013397;28;20042;-56
2023/01/01 06:51:16;;;;;;;17.70;15.35;;;;;;;19.78;50.95;102643.34;5013290;28;20065;-56
2023/01/01 06:53:43;;;;;;;18.13;14.88;;;;;;;19.78;51.09;102629.91;5013484;28;20060;-57
2023/01/01 06:56:11;;;;;;;18.02;14.75;;;;;;;19.76;50.76;102628.16;5013271;28;20046;-57
2023/01/01 06:58:38;;;;;;;16.75;14.73;;;;;;;19.76;51.07;102638.03;5013406;28;20056;-57
2023/01/01 07:01:09;;;;;;;17.67;14.68;;;;;;;19.75;50.95;102631.78;5013224;28;20050;-56
2023/01/01 07:03:38;;;;;;;16.98;14.80;;;;;;;19.76;50.82;102654.16;5013348;28;20053;-57
2023/01/01 07:06:06;;;;;;;15.98;14.05;;;;;;;19.75;50.71;102653.28;5013212;28;20049;-56
2023/01/01 07:08:34;;;;;;;17.75;14.98;;;;;;;19.75;50.94;102657.81;5013246;28;20399;-56
2023/01/01 07:11:02;;;;;;;17.17;15.32;;;;;;;19.74;50.76;102656.94;5029430;28;20045;-56
2023/01/01 07:13:30;;;;;;;16.58;14.07;;;;;;;19.74;50.62;102650.72;5016597;28;20053;-56
2023/01/01 07:15:59;;;;;;;18.08;14.93;;;;;;;19.72;50.49;102650.78;5016625;28;20495;-56
2023/01/01 07:18:29;;;;;;;16.67;14.30;;;;;;;19.72;50.89;102648.09;5016581;28;20061;-55
2023/01/01 07:20:58;;;;;;;16.88;14.52;;;;;;;19.72;50.65;102647.22;5016504;28;20046;-56
2023/01/01 07:23:27;;;;;;;18.60;14.98;;;;;;;19.72;50.57;102658.84;5016520;28;20041;-57
2023/01/01 07:25:55;;;;;;;15.20;13.60;;;;;;;19.73;50.64;102657.06;5016461;28;20053;-58
2023/01/01 07:28:23;;;;;;;16.60;14.30;;;;;;;19.72;50.88;102653.47;5016491;28;20057;-57
2023/01/01 07:30:52;;;;;;;17.33;14.07;;;;;;;19.72;50.50;102658.84;5016328;28;20068;-58
2023/01/01 07:33:22;;;;;;;16.20;14.48;;;;;;;19.72;50.39;102653.47;5016964;28;20400;-57
2023/01/01 07:35:50;;;;;;;16.52;13.40;;;;;;;19.72;50.67;102658.84;5016402;28;20054;-56
2023/01/01 07:38:17;;;;;;;15.30;13.70;;;;;;;19.72;50.78;102650.78;5016146;28;20045;-56
2023/01/01 07:40:44;;;;;;;19.13;14.65;;;;;;;19.72;50.62;102647.22;5016040;28;20046;-56
2023/01/01 07:43:12;;;;;;;17.02;13.50;;;;;;;19.73;50.54;102662.44;5016183;28;20046;-56
2023/01/01 07:45:40;;;;;;;14.60;12.95;;;;;;;19.72;50.41;102664.22;5016036;28;20076;-57
2023/01/01 07:48:13;;;;;;;16.45;13.40;;;;;;;19.72;50.37;102664.22;5016222;28;20053;-57
2023/01/01 07:50:41;;;;;;;15.82;13.45;;;;;;;19.72;50.39;102655.28;5016001;28;20392;-56
2023/01/01 07:53:09;;;;;;;15.25;12.93;;;;;;;19.71;50.30;102656.25;5016041;28;20045;-56
2023/01/01 07:55:36;;;;;;;17.05;13.82;;;;;;;19.72;50.39;102661.53;5015782;28;20387;-56
2023/01/01 07:58:04;;;;;;;16.85;13.57;;;;;;;19.72;50.71;102666.03;5015946;28;20388;-56
2023/01/01 08:00:31;;;;;;;16.95;13.88;;;;;;;19.72;50.69;102672.28;5015725;28;20467;-56
2023/01/01 08:02:58;;;;;;;15.35;13.15;;;;;;;19.71;50.52;102672.38;5015802;28;20101;-56
2023/01/01 08:05:26;;;;;;;16.48;13.98;;;;;;;19.70;50.33;102679.56;5015623;28;20050;-56
2023/01/01 08:07:53;;;;;;;16.65;13.57;;;;;;;19.71;50.54;102677.75;5015644;28;20053;-56
2023/01/01 08:10:21;;;;;;;15.77;13.13;;;;;;;19.71;50.38;102672.38;5015598;28;20046;-57
2023/01/01 08:12:48;;;;;;;15.18;13.40;;;;;;;19.72;50.43;102683.03;5015632;28;20049;-56
2023/01/01 08:15:16;;;;;;;14.75;12.88;;;;;;;19.71;50.52;102678.63;5016077;28;20061;-56
2023/01/01 08:17:43;;;;;;;16.27;13.88;;;;;;;19.71;50.37;102678.63;5015688;28;20057;-56
2023/01/01 08:20:13;;;;;;;16.35;13.52;;;;;;;19.73;50.50;102675.84;5015291;28;20050;-56
2023/01/01 08:22:40;;;;;;;15.85;13.20;;;;;;;19.73;50.37;102670.47;5015055;28;20155;-56
2023/01/01 08:25:08;;;;;;;16.95;13.10;;;;;;;19.72;50.46;102672.28;5015333;28;20046;-56
2023/01/01 08:27:36;;;;;;;15.15;12.02;;;;;;;19.72;50.37;102677.66;5015281;28;20053;-57
2023/01/01 08:30:04;;;;;;;16.20;12.50;;;;;;;19.72;50.63;102685.72;5015308;28;20050;-57
2023/01/01 08:32:32;;;;;;;17.25;14.18;;;;;;;19.72;50.29;102680.34;5016142;28;20070;-57
2023/01/01 08:34:59;;;;;;;16.85;13.25;;;;;;;19.71;50.51;102680.44;5015146;28;20042;-56
2023/01/01 08:37:26;;;;;;;17.13;13.00;;;;;;;19.72;50.30;102685.72;5015194;28;20104;-57
2023/01/01 08:39:54;;;;;;;15.32;13.27;;;;;;;19.72;50.55;102684.84;5014864;28;20065;-56
2023/01/01 08:42:21;;;;;;;15.90;12.88;;;;;;;19.72;50.24;102680.34;5013788;28;20487;-57
2023/01/01 08:44:49;;;;;;;15.98;13.13;;;;;;;19.72;50.30;102683.03;5014992;28;20046;-57
2023/01/01 08:47:22;;;;;;;17.00;13.68;;;;;;;19.72;50.00;102672.28;5015007;28;20045;-57
2023/01/01 08:49:49;;;;;;;;;;;;;;;19.71;50.02;102681.31;5015481;28;20052;-56
2023/01/01 08:52:19;;;;;;;16.38;13.45;;;;;;;19.72;50.04;102680.34;5014894;28;19925;-57
2023/01/01 08:54:46;;;;;;;15.70;13.35;;;;;;;19.72;49.77;102680.34;5014687;28;20057;-56
2023/01/01 08:57:14;;;;;;;14.93;12.73;;;;;;;19.73;49.82;102673.16;5014571;28;20050;-57
2023/01/01 08:59:41;;;;;;;14.60;12.27;;;;;;;19.73;50.03;102682.09;5015061;28;20058;-57
2023/01/01 09:02:10;;;;;;;15.45;12.85;;;;;;;19.74;50.23;102683.81;5014549;28;20060;-56
2023/01/01 09:04:38;;;;;;;13.02;11.60;;;;;;;19.74;50.04;102685.66;5014776;28;20387;-57
2023/01/01 09:07:06;;;;;;;14.07;12.23;;;;;;;19.75;50.21;102690.06;5014674;28;20048;-56
2023/01/01 09:09:33;;;;;;;13.57;12.10;;;;;;;19.75;50.04;102684.69;5014587;28;20068;-57
2023/01/01 09:12:08;;;;;;;14.52;13.02;;;;;;;19.74;49.85;102689.19;5014610;28;20045;-57
2023/01/01 09:14:35;;;;;;;12.30;10.95;;;;;;;19.75;50.23;102695.44;5015003;28;20054;-57
2023/01/01 09:17:02;;;;;;;13.35;11.63;;;;;;;19.75;50.43;102696.28;5014273;28;20046;-57
2023/01/01 09:19:30;;;;;;;13.80;12.38;;;;;;;19.75;50.18;102695.44;5014336;28;20057;-56
2023/01/01 09:21:57;;;;;;;14.52;12.25;;;;;;;19.75;50.34;102692.75;5014367;28;20056;-56
2023/01/01 09:24:24;;;;;;;12.02;10.45;;;;;;;19.76;50.54;102686.41;5014313;28;20057;-57
2023/01/01 09:26:52;;;;;;;13.10;11.20;;;;;;;19.75;50.46;102685.53;5014487;28;20056;-56
2023/01/01 09:29:20;;;;;;;14.60;11.60;;;;;;;19.75;50.47;102690.91;5014216;28;20054;-56
2023/01/01 09:31:48;;;;;;;13.68;11.05;;;;;;;19.75;50.43;102690.91;5014181;28;20050;-56
2023/01/01 09:34:16;;;;;;;13.52;10.35;;;;;;;19.76;50.66;102687.25;5013539;28;20042;-56
2023/01/01 09:36:45;;;;;;;13.43;10.93;;;;;;;19.76;50.66;102684.56;5014137;28;20049;-56
2023/01/01 09:39:14;;;;;;;14.75;10.88;;;;;;;19.76;50.45;102681.91;5013990;28;20053;-57
2023/01/01 09:42:00;;;;;;;16.42;14.43;;;;;;;19.74;49.67;102688.34;5014139;28;20054;-47
2023/01/01 09:44:46;;;;;;;23.17;17.75;;;;;;;19.63;48.48;102686.25;5013784;28;20396;-47
2023/01/01 09:47:28;;;;;;;19.60;16.90;;;;;;;19.51;48.53;102684.25;5013869;28;20070;-48
2023/01/01 09:50:02;;;;;;;22.55;19.33;;;;;;;19.39;48.87;102684.94;5014003;28;20050;-48
2023/01/01 09:52:38;;;;;;;20.98;17.75;;;;;;;19.26;49.31;102680.28;5013922;28;20046;-53
2023/01/01 09:55:17;;;;;;;20.27;16.33;;;;;;;19.25;49.92;102675.88;5013950;28;20057;-55
2023/01/01 09:57:44;;;;;;;15.35;13.35;;;;;;;19.32;50.96;102680.88;5014263;28;20492;-55
2023/01/01 10:00:15;;;;;;;16.13;12.38;;;;;;;19.37;51.34;102678.81;5013577;28;20392;-56
2023/01/01 10:03:10;;;;;;;14.02;12.40;;;;;;;19.43;51.43;102671.25;5012520;28;20052;-54
2023/01/01 10:05:55;;;;;;;14.93;11.75;;;;;;;19.48;51.69;102660.22;5013666;28;20053;-51
2023/01/01 10:08:40;;;;;;;13.55;11.23;;;;;;;19.55;51.63;102653.56;5014420;28;20415;-49
2023/01/01 10:11:14;;;;;;;13.98;10.50;;;;;;;19.56;51.53;102657.97;5013813;28;20060;-51
2023/01/01 10:13:42;;;;;;;;;;;;;;;19.58;51.69;102648.03;5014154;28;20050;-51
2023/01/01 10:16:17;;;;;;;12.82;10.85;;;;;;;19.61;51.59;102645.19;5013511;28;19929;-49
2023/01/01 10:18:54;;;;;;;13.05;10.38;;;;;;;19.63;51.64;102645.97;5013851;28;20053;-49
2023/01/01 10:21:35;;;;;;;14.05;9.52;;;;;;;19.65;51.67;102646.75;5013791;28;20442;-49
2023/01/01 10:24:35;;;;;;;11.73;10.00;;;;;;;19.66;51.65;102651.16;5013639;28;20049;-49
2023/01/01 10:27:04;;;;;;;11.88;9.32;;;;;;;19.67;51.62;102655.56;5014633;28;20070;-50
2023/01/01 10:29:41;;;;;;;14.18;9.27;;;;;;;19.68;51.20;102646.53;5013699;28;20530;-49
2023/01/01 10:32:18;;;;;;;12.75;10.07;;;;;;;19.67;50.84;102647.50;5013589;28;20046;-49
2023/01/01 10:34:46;;;;;;;13.55;9.48;;;;;;;19.67;51.40;102644.81;5012340;28;20046;-52
2023/01/01 10:37:14;;;;;;;11.52;9.55;;;;;;;19.67;50.74;102643.97;5013456;28;20071;-49
2023/01/01 10:39:44;;;;;;;20.85;12.25;;;;;;;19.66;50.27;102640.41;5013107;28;20046;-49
2023/01/01 10:42:12;;;;;;;12.02;9.52;;;;;;;19.65;50.78;102637.81;5013484;28;20053;-50
2023/01/01 10:44:40;;;;;;;11.93;9.25;;;;;;;19.67;51.22;102638.59;5013782;28;20490;-50
2023/01/01 10:47:23;;;;;;;12.57;9.25;;;;;;;19.66;51.30;102629.66;5017104;28;20050;-49
2023/01/01 10:49:53;;;;;;;12.93;9.73;;;;;;;19.67;50.91;102634.06;5016899;28;20511;-50
2023/01/01 10:52:25;;;;;;;12.27;10.77;;;;;;;19.66;50.79;102629.66;5017090;28;20476;-50
2023/01/01 10:54:52;;;;;;;10.75;9.57;;;;;;;19.66;50.62;102626.97;5017022;28;20045;-54
2023/01/01 10:57:25;;;;;;;11.30;9.88;;;;;;;19.67;50.89;102633.22;5016905;28;20041;-50
2023/01/01 10:59:53;;;;;;;;;;;;;;;19.67;50.85;102623.31;5017351;28;20046;-50
2023/01/01 11:02:22;;;;;;;12.27;9.75;;;;;;;19.67;50.88;102617.94;5016869;28;19921;-50
2023/01/01 11:04:51;;;;;;;13.75;10.43;;;;;;;19.67;50.64;102607.19;5016765;28;20502;-51
2023/01/01 11:07:29;;;;;;;15.27;12.20;;;;;;;19.67;50.55;102604.50;5016814;28;20050;-50
2023/01/01 11:10:03;;;;;;;14.90;11.10;;;;;;;19.68;50.75;102600.00;5016980;28;20057;-50
2023/01/01 11:12:36;;;;;;;11.13;9.57;;;;;;;19.68;50.96;102608.06;5016648;28;20046;-50
2023/01/01 11:15:38;;;;;;;11.90;9.93;;;;;;;19.67;51.12;102598.28;5016515;28;20038;-51
2023/01/01 11:18:21;;;;;;;10.67;8.97;;;;;;;19.68;51.30;102602.69;5016391;28;20061;-50
2023/01/01 11:20:55;;;;;;;11.27;9.63;;;;;;;19.67;51.07;102596.44;5017044;28;20054;-51
2023/01/01 11:23:37;;;;;;;11.93;10.18;;;;;;;19.67;51.22;102585.72;5016432;28;20468;-50
2023/01/01 11:26:13;;;;;;;10.90;9.77;;;;;;;19.67;51.08;102591.09;5016473;28;20046;-50
2023/01/01 11:28:40;;;;;;;10.20;9.13;;;;;;;19.67;51.03;102588.41;5016233;28;20045;-51
2023/01/01 11:31:23;;;;;;;12.70;9.85;;;;;;;19.67;51.18;102580.34;5017300;28;20054;-50
2023/01/01 11:33:53;;;;;;;13.40;9.95;;;;;;;19.68;51.09;102579.38;5025798;28;20045;-50